sensor_id;sensor_type;location;lat;lon;timestamp;temperature;humidity
53053;DHT22;38934;52.690;6.184;2024-03-17T00:00:02;4.40;99.90
53053;DHT22;38934;52.690;6.184;2024-03-17T00:02:28;4.60;99.90
53053;DHT22;38934;52.690;6.184;2024-03-17T00:04:54;4.40;99.90
53053;DHT22;38934;52.690;6.184;2024-03-17T00:07:19;4.40;99.90
53053;DHT22;38934;52.690;6.184;2024-03-17T00:09:45;4.40;99.90
53053;DHT22;38934;52.690;6.184;2024-03-17T00:12:11;4.40;99.90
53053;DHT22;38934;52.690;6.184;2024-03-17T00:14:37;4.40;99.90
53053;DHT22;38934;52.690;6.184;2024-03-17T00:17:02;4.40;99.90
53053;DHT22;38934;52.690;6.184;2024-03-17T00:19:28;4.40;99.90
53053;DHT22;38934;52.690;6.184;2024-03-17T00:21:54;4.30;99.90
53053;DHT22;38934;52.690;6.184;2024-03-17T00:24:20;4.30;99.90
53053;DHT22;38934;52.690;6.184;2024-03-17T00:26:48;4.30;99.90
53053;DHT22;38934;52.690;6.184;2024-03-17T00:29:17;4.30;99.90
53053;DHT22;38934;52.690;6.184;2024-03-17T00:31:42;4.30;99.90
53053;DHT22;38934;52.690;6.184;2024-03-17T00:34:08;4.30;99.90
53053;DHT22;38934;52.690;6.184;2024-03-17T00:36:34;4.20;99.90
53053;DHT22;38934;52.690;6.184;2024-03-17T00:39:00;4.20;99.90
53053;DHT22;38934;52.690;6.184;2024-03-17T00:41:26;4.20;99.90
53053;DHT22;38934;52.690;6.184;2024-03-17T00:43:52;4.10;99.90
53053;DHT22;38934;52.690;6.184;2024-03-17T00:46:20;4.50;99.90
53053;DHT22;38934;52.690;6.184;2024-03-17T00:48:50;4.10;99.90
53053;DHT22;38934;52.690;6.184;2024-03-17T00:51:16;4.00;99.90
53053;DHT22;38934;52.690;6.184;2024-03-17T00:53:42;4.00;99.90
53053;DHT22;38934;52.690;6.184;2024-03-17T00:56:08;4.00;99.90
53053;DHT22;38934;52.690;6.184;2024-03-17T00:58:33;3.90;99.90
53053;DHT22;38934;52.690;6.184;2024-03-17T01:00:59;3.90;99.90
53053;DHT22;38934;52.690;6.184;2024-03-17T01:03:24;3.90;99.90
53053;DHT22;38934;52.690;6.184;2024-03-17T01:05:50;3.90;99.90
53053;DHT22;38934;52.690;6.184;2024-03-17T01:08:18;3.80;99.90
53053;DHT22;38934;52.690;6.184;2024-03-17T01:10:44;3.80;99.90
53053;DHT22;38934;52.690;6.184;2024-03-17T01:13:10;3.80;99.90
53053;DHT22;38934;52.690;6.184;2024-03-17T01:15:37;3.70;99.90
53053;DHT22;38934;52.690;6.184;2024-03-17T01:18:03;3.70;99.90
53053;DHT22;38934;52.690;6.184;2024-03-17T01:20:34;3.70;99.90
53053;DHT22;38934;52.690;6.184;2024-03-17T01:23:00;3.70;99.90
53053;DHT22;38934;52.690;6.184;2024-03-17T01:25:25;3.60;99.90
53053;DHT22;38934;52.690;6.184;2024-03-17T01:27:52;3.60;99.90
53053;DHT22;38934;52.690;6.184;2024-03-17T01:30:18;3.50;99.90
53053;DHT22;38934;52.690;6.184;2024-03-17T01:32:47;3.60;99.90
53053;DHT22;38934;52.690;6.184;2024-03-17T01:35:14;3.50;99.90
53053;DHT22;38934;52.690;6.184;2024-03-17T01:37:40;3.50;99.90
53053;DHT22;38934;52.690;6.184;2024-03-17T01:40:06;3.50;99.90
53053;DHT22;38934;52.690;6.184;2024-03-17T01:42:39;3.50;99.90
53053;DHT22;38934;52.690;6.184;2024-03-17T01:47:43;3.40;99.90
53053;DHT22;38934;52.690;6.184;2024-03-17T01:50:09;3.40;99.90
53053;DHT22;38934;52.690;6.184;2024-03-17T01:52:35;3.40;99.90
53053;DHT22;38934;52.690;6.184;2024-03-17T01:55:02;3.40;99.90
53053;DHT22;38934;52.690;6.184;2024-03-17T01:57:29;3.30;99.90
53053;DHT22;38934;52.690;6.184;2024-03-17T01:59:55;3.30;99.90
53053;DHT22;38934;52.690;6.184;2024-03-17T02:02:21;3.30;99.90
53053;DHT22;38934;52.690;6.184;2024-03-17T02:04:47;3.20;99.90
53053;DHT22;38934;52.690;6.184;2024-03-17T02:07:13;3.20;99.90
53053;DHT22;38934;52.690;6.184;2024-03-17T02:09:40;3.30;99.90
53053;DHT22;38934;52.690;6.184;2024-03-17T02:12:06;3.30;99.90
53053;DHT22;38934;52.690;6.184;2024-03-17T02:14:33;3.30;99.90
53053;DHT22;38934;52.690;6.184;2024-03-17T02:16:59;3.20;99.90
53053;DHT22;38934;52.690;6.184;2024-03-17T02:19:24;3.20;99.90
53053;DHT22;38934;52.690;6.184;2024-03-17T02:21:50;3.20;99.90
53053;DHT22;38934;52.690;6.184;2024-03-17T02:24:16;3.20;99.90
53053;DHT22;38934;52.690;6.184;2024-03-17T02:26:41;3.10;99.90
53053;DHT22;38934;52.690;6.184;2024-03-17T02:29:07;3.10;99.90
53053;DHT22;38934;52.690;6.184;2024-03-17T02:31:33;3.10;99.90
53053;DHT22;38934;52.690;6.184;2024-03-17T02:33:58;3.10;99.90
53053;DHT22;38934;52.690;6.184;2024-03-17T02:36:24;3.10;99.90
53053;DHT22;38934;52.690;6.184;2024-03-17T02:38:49;3.10;99.90
53053;DHT22;38934;52.690;6.184;2024-03-17T02:41:33;3.10;99.90
53053;DHT22;38934;52.690;6.184;2024-03-17T02:43:59;3.10;99.90
53053;DHT22;38934;52.690;6.184;2024-03-17T02:46:24;3.20;99.90
53053;DHT22;38934;52.690;6.184;2024-03-17T02:48:52;3.20;99.90
53053;DHT22;38934;52.690;6.184;2024-03-17T02:51:19;3.20;99.90
53053;DHT22;38934;52.690;6.184;2024-03-17T02:53:47;3.30;99.90
53053;DHT22;38934;52.690;6.184;2024-03-17T02:56:13;3.30;99.90
53053;DHT22;38934;52.690;6.184;2024-03-17T02:58:42;3.30;99.90
53053;DHT22;38934;52.690;6.184;2024-03-17T03:01:08;3.40;99.90
53053;DHT22;38934;52.690;6.184;2024-03-17T03:03:37;3.40;99.90
53053;DHT22;38934;52.690;6.184;2024-03-17T03:06:03;3.40;99.90
53053;DHT22;38934;52.690;6.184;2024-03-17T03:08:32;3.50;99.90
53053;DHT22;38934;52.690;6.184;2024-03-17T03:10:59;3.50;99.90
53053;DHT22;38934;52.690;6.184;2024-03-17T03:13:25;3.50;99.90
53053;DHT22;38934;52.690;6.184;2024-03-17T03:15:51;3.60;99.90
53053;DHT22;38934;52.690;6.184;2024-03-17T03:18:16;3.60;99.90
53053;DHT22;38934;52.690;6.184;2024-03-17T03:20:42;3.60;99.90
53053;DHT22;38934;52.690;6.184;2024-03-17T03:23:09;3.70;99.90
53053;DHT22;38934;52.690;6.184;2024-03-17T03:25:34;3.70;99.90
53053;DHT22;38934;52.690;6.184;2024-03-17T03:28:00;3.70;99.90
53053;DHT22;38934;52.690;6.184;2024-03-17T03:30:27;3.70;99.90
53053;DHT22;38934;52.690;6.184;2024-03-17T03:32:53;3.70;99.90
53053;DHT22;38934;52.690;6.184;2024-03-17T03:35:18;3.70;99.90
53053;DHT22;38934;52.690;6.184;2024-03-17T03:37:45;3.70;99.90
53053;DHT22;38934;52.690;6.184;2024-03-17T03:40:11;3.70;99.90
53053;DHT22;38934;52.690;6.184;2024-03-17T03:42:43;3.70;99.90
53053;DHT22;38934;52.690;6.184;2024-03-17T03:45:09;3.60;99.90
53053;DHT22;38934;52.690;6.184;2024-03-17T03:47:39;3.60;99.90
53053;DHT22;38934;52.690;6.184;2024-03-17T03:50:09;3.60;99.90
53053;DHT22;38934;52.690;6.184;2024-03-17T03:52:36;3.60;99.90
53053;DHT22;38934;52.690;6.184;2024-03-17T03:55:02;3.60;99.90
53053;DHT22;38934;52.690;6.184;2024-03-17T03:57:32;3.60;99.90
53053;DHT22;38934;52.690;6.184;2024-03-17T04:00:00;3.60;99.90
53053;DHT22;38934;52.690;6.184;2024-03-17T04:02:25;3.60;99.90
53053;DHT22;38934;52.690;6.184;2024-03-17T04:04:57;3.60;99.90
53053;DHT22;38934;52.690;6.184;2024-03-17T04:07:23;3.70;99.90
53053;DHT22;38934;52.690;6.184;2024-03-17T04:09:49;3.70;99.90
53053;DHT22;38934;52.690;6.184;2024-03-17T04:12:14;3.80;99.90
53053;DHT22;38934;52.690;6.184;2024-03-17T04:14:40;3.80;99.90
53053;DHT22;38934;52.690;6.184;2024-03-17T04:17:06;3.90;99.90
53053;DHT22;38934;52.690;6.184;2024-03-17T04:19:31;3.90;99.90
53053;DHT22;38934;52.690;6.184;2024-03-17T04:21:57;3.90;99.90
53053;DHT22;38934;52.690;6.184;2024-03-17T04:24:22;3.90;99.90
53053;DHT22;38934;52.690;6.184;2024-03-17T04:26:48;3.90;99.90
53053;DHT22;38934;52.690;6.184;2024-03-17T04:29:14;3.90;99.90
53053;DHT22;38934;52.690;6.184;2024-03-17T04:31:40;3.90;99.90
53053;DHT22;38934;52.690;6.184;2024-03-17T04:34:07;4.10;99.90
53053;DHT22;38934;52.690;6.184;2024-03-17T04:36:33;4.00;99.90
53053;DHT22;38934;52.690;6.184;2024-03-17T04:38:58;4.00;99.90
53053;DHT22;38934;52.690;6.184;2024-03-17T04:41:24;4.00;99.90
53053;DHT22;38934;52.690;6.184;2024-03-17T04:43:49;4.00;99.90
53053;DHT22;38934;52.690;6.184;2024-03-17T04:46:15;4.10;99.90
53053;DHT22;38934;52.690;6.184;2024-03-17T04:48:41;4.10;99.90
53053;DHT22;38934;52.690;6.184;2024-03-17T04:51:07;4.10;99.90
53053;DHT22;38934;52.690;6.184;2024-03-17T04:53:32;4.10;99.90
53053;DHT22;38934;52.690;6.184;2024-03-17T04:56:02;4.10;99.90
53053;DHT22;38934;52.690;6.184;2024-03-17T04:58:30;4.20;99.90
53053;DHT22;38934;52.690;6.184;2024-03-17T05:00:56;4.20;99.90
53053;DHT22;38934;52.690;6.184;2024-03-17T05:03:22;4.20;99.90
53053;DHT22;38934;52.690;6.184;2024-03-17T05:05:48;4.20;99.90
53053;DHT22;38934;52.690;6.184;2024-03-17T05:08:13;4.20;99.90
53053;DHT22;38934;52.690;6.184;2024-03-17T05:10:39;4.20;99.90
53053;DHT22;38934;52.690;6.184;2024-03-17T05:13:04;4.30;99.90
53053;DHT22;38934;52.690;6.184;2024-03-17T05:15:30;4.20;99.90
53053;DHT22;38934;52.690;6.184;2024-03-17T05:17:55;4.20;99.90
53053;DHT22;38934;52.690;6.184;2024-03-17T05:20:22;4.20;99.90
53053;DHT22;38934;52.690;6.184;2024-03-17T05:22:48;4.40;99.90
53053;DHT22;38934;52.690;6.184;2024-03-17T05:25:14;4.20;99.90
53053;DHT22;38934;52.690;6.184;2024-03-17T05:27:40;4.30;99.90
53053;DHT22;38934;52.690;6.184;2024-03-17T05:30:06;4.30;99.90
53053;DHT22;38934;52.690;6.184;2024-03-17T05:32:34;4.30;99.90
53053;DHT22;38934;52.690;6.184;2024-03-17T05:34:59;4.30;99.90
53053;DHT22;38934;52.690;6.184;2024-03-17T05:37:25;4.30;99.90
53053;DHT22;38934;52.690;6.184;2024-03-17T05:39:51;4.30;99.90
53053;DHT22;38934;52.690;6.184;2024-03-17T05:42:17;4.30;99.90
53053;DHT22;38934;52.690;6.184;2024-03-17T05:44:42;4.30;99.90
53053;DHT22;38934;52.690;6.184;2024-03-17T05:47:18;4.30;99.90
53053;DHT22;38934;52.690;6.184;2024-03-17T05:49:44;4.30;99.90
53053;DHT22;38934;52.690;6.184;2024-03-17T05:52:11;4.30;99.90
53053;DHT22;38934;52.690;6.184;2024-03-17T05:54:36;4.30;99.90
53053;DHT22;38934;52.690;6.184;2024-03-17T05:57:03;4.40;99.90
53053;DHT22;38934;52.690;6.184;2024-03-17T05:59:30;4.40;99.90
53053;DHT22;38934;52.690;6.184;2024-03-17T06:01:56;4.40;99.90
53053;DHT22;38934;52.690;6.184;2024-03-17T06:04:22;4.50;99.90
53053;DHT22;38934;52.690;6.184;2024-03-17T06:06:49;4.50;99.90
53053;DHT22;38934;52.690;6.184;2024-03-17T06:09:15;4.50;99.90
53053;DHT22;38934;52.690;6.184;2024-03-17T06:11:43;4.50;99.90
53053;DHT22;38934;52.690;6.184;2024-03-17T06:14:09;4.60;99.90
53053;DHT22;38934;52.690;6.184;2024-03-17T06:16:37;4.60;99.90
53053;DHT22;38934;52.690;6.184;2024-03-17T06:19:03;4.60;99.90
53053;DHT22;38934;52.690;6.184;2024-03-17T06:21:29;4.70;99.90
53053;DHT22;38934;52.690;6.184;2024-03-17T06:23:54;4.70;99.90
53053;DHT22;38934;52.690;6.184;2024-03-17T06:26:20;4.80;99.90
53053;DHT22;38934;52.690;6.184;2024-03-17T06:28:46;4.80;99.90
53053;DHT22;38934;52.690;6.184;2024-03-17T06:31:12;4.80;99.90
53053;DHT22;38934;52.690;6.184;2024-03-17T06:33:38;4.80;99.90
53053;DHT22;38934;52.690;6.184;2024-03-17T06:36:04;4.90;99.90
53053;DHT22;38934;52.690;6.184;2024-03-17T06:38:31;4.90;99.90
53053;DHT22;38934;52.690;6.184;2024-03-17T06:40:56;4.90;99.90
53053;DHT22;38934;52.690;6.184;2024-03-17T06:43:22;4.90;99.90
53053;DHT22;38934;52.690;6.184;2024-03-17T06:45:59;4.90;99.90
53053;DHT22;38934;52.690;6.184;2024-03-17T06:48:25;5.00;99.90
53053;DHT22;38934;52.690;6.184;2024-03-17T06:50:52;5.00;99.90
53053;DHT22;38934;52.690;6.184;2024-03-17T06:53:18;5.10;99.90
53053;DHT22;38934;52.690;6.184;2024-03-17T06:55:51;5.10;99.90
53053;DHT22;38934;52.690;6.184;2024-03-17T06:58:17;5.20;99.90
53053;DHT22;38934;52.690;6.184;2024-03-17T07:00:59;5.20;99.90
53053;DHT22;38934;52.690;6.184;2024-03-17T07:03:29;5.30;99.90
53053;DHT22;38934;52.690;6.184;2024-03-17T07:05:57;5.40;99.90
53053;DHT22;38934;52.690;6.184;2024-03-17T07:08:24;5.60;99.90
53053;DHT22;38934;52.690;6.184;2024-03-17T07:11:04;5.50;99.90
53053;DHT22;38934;52.690;6.184;2024-03-17T07:13:33;5.70;99.90
53053;DHT22;38934;52.690;6.184;2024-03-17T07:16:00;5.60;99.90
53053;DHT22;38934;52.690;6.184;2024-03-17T07:18:26;5.70;99.90
53053;DHT22;38934;52.690;6.184;2024-03-17T07:20:53;5.70;99.90
53053;DHT22;38934;52.690;6.184;2024-03-17T07:23:18;5.70;99.90
53053;DHT22;38934;52.690;6.184;2024-03-17T07:25:58;5.80;99.90
53053;DHT22;38934;52.690;6.184;2024-03-17T07:28:24;5.90;99.90
53053;DHT22;38934;52.690;6.184;2024-03-17T07:30:57;6.00;99.90
53053;DHT22;38934;52.690;6.184;2024-03-17T07:33:24;6.10;99.90
53053;DHT22;38934;52.690;6.184;2024-03-17T07:35:54;6.10;99.90
53053;DHT22;38934;52.690;6.184;2024-03-17T07:38:22;6.20;99.90
53053;DHT22;38934;52.690;6.184;2024-03-17T07:43:28;6.30;99.90
53053;DHT22;38934;52.690;6.184;2024-03-17T07:45:58;6.40;99.90
53053;DHT22;38934;52.690;6.184;2024-03-17T07:48:24;6.50;99.90
53053;DHT22;38934;52.690;6.184;2024-03-17T07:51:00;6.60;99.90
53053;DHT22;38934;52.690;6.184;2024-03-17T07:53:29;6.80;99.90
53053;DHT22;38934;52.690;6.184;2024-03-17T07:56:11;6.90;99.90
53053;DHT22;38934;52.690;6.184;2024-03-17T07:58:39;7.10;99.90
53053;DHT22;38934;52.690;6.184;2024-03-17T08:01:07;7.20;99.90
53053;DHT22;38934;52.690;6.184;2024-03-17T08:03:35;7.30;99.90
53053;DHT22;38934;52.690;6.184;2024-03-17T08:06:02;7.40;99.90
53053;DHT22;38934;52.690;6.184;2024-03-17T08:08:29;7.40;99.90
53053;DHT22;38934;52.690;6.184;2024-03-17T08:10:54;7.50;99.90
53053;DHT22;38934;52.690;6.184;2024-03-17T08:13:21;7.60;99.90
53053;DHT22;38934;52.690;6.184;2024-03-17T08:15:58;7.70;99.90
53053;DHT22;38934;52.690;6.184;2024-03-17T08:18:24;7.80;99.90
53053;DHT22;38934;52.690;6.184;2024-03-17T08:20:50;7.90;99.90
53053;DHT22;38934;52.690;6.184;2024-03-17T08:23:16;8.00;99.90
53053;DHT22;38934;52.690;6.184;2024-03-17T08:25:42;8.10;99.90
53053;DHT22;38934;52.690;6.184;2024-03-17T08:28:07;8.30;99.90
53053;DHT22;38934;52.690;6.184;2024-03-17T08:30:33;8.40;99.90
53053;DHT22;38934;52.690;6.184;2024-03-17T08:33:00;8.50;99.90
53053;DHT22;38934;52.690;6.184;2024-03-17T08:35:26;8.70;99.90
53053;DHT22;38934;52.690;6.184;2024-03-17T08:37:52;8.80;99.90
53053;DHT22;38934;52.690;6.184;2024-03-17T08:40:20;8.90;99.90
53053;DHT22;38934;52.690;6.184;2024-03-17T08:42:46;8.90;99.90
53053;DHT22;38934;52.690;6.184;2024-03-17T08:45:12;8.90;99.90
53053;DHT22;38934;52.690;6.184;2024-03-17T08:47:38;8.90;99.90
53053;DHT22;38934;52.690;6.184;2024-03-17T08:50:04;8.80;99.90
53053;DHT22;38934;52.690;6.184;2024-03-17T08:52:30;8.80;99.90
53053;DHT22;38934;52.690;6.184;2024-03-17T08:54:59;9.00;99.90
53053;DHT22;38934;52.690;6.184;2024-03-17T08:57:25;8.80;99.90
53053;DHT22;38934;52.690;6.184;2024-03-17T08:59:51;8.80;99.90
53053;DHT22;38934;52.690;6.184;2024-03-17T09:02:20;9.60;99.90
53053;DHT22;38934;52.690;6.184;2024-03-17T09:04:47;8.90;99.90
53053;DHT22;38934;52.690;6.184;2024-03-17T09:07:13;9.10;99.90
53053;DHT22;38934;52.690;6.184;2024-03-17T09:09:41;9.20;99.90
53053;DHT22;38934;52.690;6.184;2024-03-17T09:12:07;9.40;99.90
53053;DHT22;38934;52.690;6.184;2024-03-17T09:14:32;9.60;99.90
53053;DHT22;38934;52.690;6.184;2024-03-17T09:16:58;9.80;99.90
53053;DHT22;38934;52.690;6.184;2024-03-17T09:19:24;9.90;99.90
53053;DHT22;38934;52.690;6.184;2024-03-17T09:21:49;10.00;99.90
53053;DHT22;38934;52.690;6.184;2024-03-17T09:24:15;10.10;99.90
53053;DHT22;38934;52.690;6.184;2024-03-17T09:26:41;10.60;99.90
53053;DHT22;38934;52.690;6.184;2024-03-17T09:29:06;10.20;99.90
53053;DHT22;38934;52.690;6.184;2024-03-17T09:31:32;10.20;99.90
53053;DHT22;38934;52.690;6.184;2024-03-17T09:34:01;10.30;99.90
53053;DHT22;38934;52.690;6.184;2024-03-17T09:36:27;10.30;99.90
53053;DHT22;38934;52.690;6.184;2024-03-17T09:38:52;10.40;99.90
53053;DHT22;38934;52.690;6.184;2024-03-17T09:41:25;10.50;99.90
53053;DHT22;38934;52.690;6.184;2024-03-17T09:43:56;10.50;99.90
53053;DHT22;38934;52.690;6.184;2024-03-17T09:46:23;11.10;99.90
53053;DHT22;38934;52.690;6.184;2024-03-17T09:48:49;11.00;99.90
53053;DHT22;38934;52.690;6.184;2024-03-17T09:51:20;10.50;99.90
53053;DHT22;38934;52.690;6.184;2024-03-17T09:53:46;10.50;99.90
53053;DHT22;38934;52.690;6.184;2024-03-17T09:56:20;10.50;99.90
53053;DHT22;38934;52.690;6.184;2024-03-17T09:58:49;10.50;99.90
53053;DHT22;38934;52.690;6.184;2024-03-17T10:01:16;10.50;99.90
53053;DHT22;38934;52.690;6.184;2024-03-17T10:03:52;10.50;99.90
53053;DHT22;38934;52.690;6.184;2024-03-17T10:06:21;10.60;99.90
53053;DHT22;38934;52.690;6.184;2024-03-17T10:08:52;10.80;99.90
53053;DHT22;38934;52.690;6.184;2024-03-17T10:11:22;10.60;99.90
53053;DHT22;38934;52.690;6.184;2024-03-17T10:14:16;10.60;99.90
53053;DHT22;38934;52.690;6.184;2024-03-17T10:16:43;10.50;99.90
53053;DHT22;38934;52.690;6.184;2024-03-17T10:19:20;10.50;99.90
53053;DHT22;38934;52.690;6.184;2024-03-17T10:21:47;10.50;99.90
53053;DHT22;38934;52.690;6.184;2024-03-17T10:24:24;11.00;99.90
53053;DHT22;38934;52.690;6.184;2024-03-17T10:26:54;10.40;99.90
53053;DHT22;38934;52.690;6.184;2024-03-17T10:31:51;10.40;99.90
53053;DHT22;38934;52.690;6.184;2024-03-17T10:34:17;10.30;99.90
53053;DHT22;38934;52.690;6.184;2024-03-17T10:36:46;10.30;99.90
53053;DHT22;38934;52.690;6.184;2024-03-17T10:39:28;10.30;99.90
53053;DHT22;38934;52.690;6.184;2024-03-17T10:42:01;10.30;99.90
53053;DHT22;38934;52.690;6.184;2024-03-17T10:44:31;10.40;99.90
53053;DHT22;38934;52.690;6.184;2024-03-17T10:46:58;10.30;99.90
53053;DHT22;38934;52.690;6.184;2024-03-17T10:49:35;10.30;99.90
53053;DHT22;38934;52.690;6.184;2024-03-17T10:52:03;10.40;99.90
53053;DHT22;38934;52.690;6.184;2024-03-17T10:54:33;10.50;99.90
53053;DHT22;38934;52.690;6.184;2024-03-17T10:57:17;10.60;99.90
53053;DHT22;38934;52.690;6.184;2024-03-17T10:59:47;10.60;99.90
53053;DHT22;38934;52.690;6.184;2024-03-17T11:02:34;10.80;99.90
53053;DHT22;38934;52.690;6.184;2024-03-17T11:05:05;10.90;99.90
53053;DHT22;38934;52.690;6.184;2024-03-17T11:07:32;11.10;99.90
53053;DHT22;38934;52.690;6.184;2024-03-17T11:09:59;11.10;99.90
53053;DHT22;38934;52.690;6.184;2024-03-17T11:12:41;11.20;99.90
53053;DHT22;38934;52.690;6.184;2024-03-17T11:20:40;11.50;99.90
53053;DHT22;38934;52.690;6.184;2024-03-17T11:23:06;11.50;99.90
53053;DHT22;38934;52.690;6.184;2024-03-17T11:28:02;11.70;99.90
53053;DHT22;38934;52.690;6.184;2024-03-17T11:39:09;11.60;99.90
53053;DHT22;38934;52.690;6.184;2024-03-17T11:41:43;11.40;99.90
53053;DHT22;38934;52.690;6.184;2024-03-17T11:47:05;11.40;99.90
53053;DHT22;38934;52.690;6.184;2024-03-17T11:49:38;11.40;99.90
53053;DHT22;38934;52.690;6.184;2024-03-17T11:54:35;11.40;99.90
53053;DHT22;38934;52.690;6.184;2024-03-17T11:57:03;11.40;99.90
53053;DHT22;38934;52.690;6.184;2024-03-17T11:59:29;11.50;99.90
53053;DHT22;38934;52.690;6.184;2024-03-17T12:01:55;11.50;99.90
53053;DHT22;38934;52.690;6.184;2024-03-17T12:04:22;11.50;99.90
53053;DHT22;38934;52.690;6.184;2024-03-17T12:06:50;11.60;99.90
53053;DHT22;38934;52.690;6.184;2024-03-17T12:09:24;11.70;99.90
53053;DHT22;38934;52.690;6.184;2024-03-17T12:12:04;11.70;99.90
53053;DHT22;38934;52.690;6.184;2024-03-17T12:14:30;11.80;99.90
53053;DHT22;38934;52.690;6.184;2024-03-17T12:17:00;11.80;99.90
53053;DHT22;38934;52.690;6.184;2024-03-17T12:19:27;11.90;99.90
53053;DHT22;38934;52.690;6.184;2024-03-17T12:22:03;11.90;99.90
53053;DHT22;38934;52.690;6.184;2024-03-17T12:24:34;11.90;99.90
53053;DHT22;38934;52.690;6.184;2024-03-17T12:27:01;12.00;99.90
53053;DHT22;38934;52.690;6.184;2024-03-17T12:31:57;12.00;99.90
53053;DHT22;38934;52.690;6.184;2024-03-17T12:34:25;12.00;99.90
53053;DHT22;38934;52.690;6.184;2024-03-17T12:36:53;12.10;99.90
53053;DHT22;38934;52.690;6.184;2024-03-17T12:42:00;12.10;99.90
53053;DHT22;38934;52.690;6.184;2024-03-17T12:44:26;12.20;99.90
53053;DHT22;38934;52.690;6.184;2024-03-17T12:46:56;12.20;99.90
53053;DHT22;38934;52.690;6.184;2024-03-17T12:49:23;12.40;99.90
53053;DHT22;38934;52.690;6.184;2024-03-17T12:51:52;12.40;99.90
53053;DHT22;38934;52.690;6.184;2024-03-17T12:54:20;12.50;99.90
53053;DHT22;38934;52.690;6.184;2024-03-17T12:56:46;12.60;99.90
53053;DHT22;38934;52.690;6.184;2024-03-17T12:59:37;12.60;99.90
53053;DHT22;38934;52.690;6.184;2024-03-17T13:02:22;12.70;99.90
53053;DHT22;38934;52.690;6.184;2024-03-17T13:05:13;12.70;99.90
53053;DHT22;38934;52.690;6.184;2024-03-17T13:07:40;12.80;99.90
53053;DHT22;38934;52.690;6.184;2024-03-17T13:10:08;12.80;99.90
53053;DHT22;38934;52.690;6.184;2024-03-17T13:12:35;12.80;99.90
53053;DHT22;38934;52.690;6.184;2024-03-17T13:15:00;12.80;99.90
53053;DHT22;38934;52.690;6.184;2024-03-17T13:17:26;12.80;99.90
53053;DHT22;38934;52.690;6.184;2024-03-17T13:19:54;12.80;99.90
53053;DHT22;38934;52.690;6.184;2024-03-17T13:22:20;12.70;99.90
53053;DHT22;38934;52.690;6.184;2024-03-17T13:24:46;12.70;99.90
53053;DHT22;38934;52.690;6.184;2024-03-17T13:27:12;12.70;99.90
53053;DHT22;38934;52.690;6.184;2024-03-17T13:29:40;12.70;99.90
53053;DHT22;38934;52.690;6.184;2024-03-17T13:32:09;12.70;99.90
53053;DHT22;38934;52.690;6.184;2024-03-17T13:34:35;12.70;99.90
53053;DHT22;38934;52.690;6.184;2024-03-17T13:37:00;12.60;99.90
53053;DHT22;38934;52.690;6.184;2024-03-17T13:39:32;12.70;99.90
53053;DHT22;38934;52.690;6.184;2024-03-17T13:41:59;12.70;99.90
53053;DHT22;38934;52.690;6.184;2024-03-17T13:44:31;12.60;99.90
53053;DHT22;38934;52.690;6.184;2024-03-17T13:46:58;12.60;99.90
53053;DHT22;38934;52.690;6.184;2024-03-17T13:49:24;12.60;99.90
53053;DHT22;38934;52.690;6.184;2024-03-17T13:51:52;12.60;99.90
53053;DHT22;38934;52.690;6.184;2024-03-17T13:54:18;12.60;99.90
53053;DHT22;38934;52.690;6.184;2024-03-17T13:56:49;12.60;99.90
53053;DHT22;38934;52.690;6.184;2024-03-17T13:59:16;12.50;99.90
53053;DHT22;38934;52.690;6.184;2024-03-17T14:01:45;12.60;99.90
53053;DHT22;38934;52.690;6.184;2024-03-17T14:04:15;12.50;99.90
53053;DHT22;38934;52.690;6.184;2024-03-17T14:06:45;12.50;99.90
53053;DHT22;38934;52.690;6.184;2024-03-17T14:09:16;12.50;99.90
53053;DHT22;38934;52.690;6.184;2024-03-17T14:11:44;12.40;99.90
53053;DHT22;38934;52.690;6.184;2024-03-17T14:14:11;12.40;99.90
53053;DHT22;38934;52.690;6.184;2024-03-17T14:16:38;12.40;99.90
53053;DHT22;38934;52.690;6.184;2024-03-17T14:19:04;12.40;99.90
53053;DHT22;38934;52.690;6.184;2024-03-17T14:21:30;12.40;99.90
53053;DHT22;38934;52.690;6.184;2024-03-17T14:23:56;12.40;99.90
53053;DHT22;38934;52.690;6.184;2024-03-17T14:26:22;12.40;99.90
53053;DHT22;38934;52.690;6.184;2024-03-17T14:28:48;12.50;99.90
53053;DHT22;38934;52.690;6.184;2024-03-17T14:31:16;12.50;99.90
53053;DHT22;38934;52.690;6.184;2024-03-17T14:33:43;12.50;99.90
53053;DHT22;38934;52.690;6.184;2024-03-17T14:36:09;12.50;99.90
53053;DHT22;38934;52.690;6.184;2024-03-17T14:38:35;12.50;99.90
53053;DHT22;38934;52.690;6.184;2024-03-17T14:41:01;12.60;99.90
53053;DHT22;38934;52.690;6.184;2024-03-17T14:43:27;12.60;99.90
53053;DHT22;38934;52.690;6.184;2024-03-17T14:45:52;12.50;99.90
53053;DHT22;38934;52.690;6.184;2024-03-17T14:48:19;12.50;99.90
53053;DHT22;38934;52.690;6.184;2024-03-17T14:50:44;12.50;99.90
53053;DHT22;38934;52.690;6.184;2024-03-17T14:53:10;12.40;99.90
53053;DHT22;38934;52.690;6.184;2024-03-17T14:55:36;12.40;99.90
53053;DHT22;38934;52.690;6.184;2024-03-17T14:58:02;12.40;99.90
53053;DHT22;38934;52.690;6.184;2024-03-17T15:00:28;12.40;99.90
53053;DHT22;38934;52.690;6.184;2024-03-17T15:02:56;12.30;99.90
53053;DHT22;38934;52.690;6.184;2024-03-17T15:05:22;12.30;99.90
53053;DHT22;38934;52.690;6.184;2024-03-17T15:07:50;12.30;99.90
53053;DHT22;38934;52.690;6.184;2024-03-17T15:10:18;12.20;99.90
53053;DHT22;38934;52.690;6.184;2024-03-17T15:12:49;12.30;99.90
53053;DHT22;38934;52.690;6.184;2024-03-17T15:15:16;12.20;99.90
53053;DHT22;38934;52.690;6.184;2024-03-17T15:17:43;12.10;99.90
53053;DHT22;38934;52.690;6.184;2024-03-17T15:20:11;12.10;99.90
53053;DHT22;38934;52.690;6.184;2024-03-17T15:22:48;12.10;99.90
53053;DHT22;38934;52.690;6.184;2024-03-17T15:25:15;12.00;99.90
53053;DHT22;38934;52.690;6.184;2024-03-17T15:27:44;12.00;99.90
53053;DHT22;38934;52.690;6.184;2024-03-17T15:30:14;12.00;99.90
53053;DHT22;38934;52.690;6.184;2024-03-17T15:32:41;12.00;99.90
53053;DHT22;38934;52.690;6.184;2024-03-17T15:35:07;11.90;99.90
53053;DHT22;38934;52.690;6.184;2024-03-17T15:37:33;11.40;99.90
53053;DHT22;38934;52.690;6.184;2024-03-17T15:39:59;11.90;99.90
53053;DHT22;38934;52.690;6.184;2024-03-17T15:42:25;11.80;99.90
53053;DHT22;38934;52.690;6.184;2024-03-17T15:44:50;11.80;99.90
53053;DHT22;38934;52.690;6.184;2024-03-17T15:47:16;11.80;99.90
53053;DHT22;38934;52.690;6.184;2024-03-17T15:49:42;11.80;99.90
53053;DHT22;38934;52.690;6.184;2024-03-17T15:52:08;11.70;99.90
53053;DHT22;38934;52.690;6.184;2024-03-17T15:54:34;11.80;99.90
53053;DHT22;38934;52.690;6.184;2024-03-17T15:57:00;11.70;99.90
53053;DHT22;38934;52.690;6.184;2024-03-17T15:59:26;11.70;99.90
53053;DHT22;38934;52.690;6.184;2024-03-17T16:01:52;11.70;99.90
53053;DHT22;38934;52.690;6.184;2024-03-17T16:04:18;11.60;99.90
53053;DHT22;38934;52.690;6.184;2024-03-17T16:06:44;11.70;99.90
53053;DHT22;38934;52.690;6.184;2024-03-17T16:09:13;11.60;99.90
53053;DHT22;38934;52.690;6.184;2024-03-17T16:11:39;11.70;99.90
53053;DHT22;38934;52.690;6.184;2024-03-17T16:14:06;11.60;99.90
53053;DHT22;38934;52.690;6.184;2024-03-17T16:16:33;11.70;99.90